sensor_id;sensor_type;location;lat;lon;timestamp;pressure;altitude;pressure_sealevel;temperature;humidity
72370;BME280;60343;-32.030;115.880;2024-02-26T00:00:20;101390.56;;;25.38;64.61
72370;BME280;60343;-32.030;115.880;2024-02-26T00:02:56;101389.00;;;25.47;64.39
72370;BME280;60343;-32.030;115.880;2024-02-26T00:05:31;101385.91;;;25.39;64.57
72370;BME280;60343;-32.030;115.880;2024-02-26T00:08:07;101392.72;;;25.36;65.13
72370;BME280;60343;-32.030;115.880;2024-02-26T00:10:42;101398.06;;;25.48;64.53
72370;BME280;60343;-32.030;115.880;2024-02-26T00:13:24;101401.06;;;25.46;64.43
72370;BME280;60343;-32.030;115.880;2024-02-26T00:15:59;101388.63;;;25.39;65.33
72370;BME280;60343;-32.030;115.880;2024-02-26T00:18:35;101380.03;;;25.30;65.49
72370;BME280;60343;-32.030;115.880;2024-02-26T00:21:13;101372.38;;;25.32;65.46
72370;BME280;60343;-32.030;115.880;2024-02-26T00:23:49;101386.72;;;25.39;65.56
72370;BME280;60343;-32.030;115.880;2024-02-26T00:26:25;101373.34;;;25.65;64.51
72370;BME280;60343;-32.030;115.880;2024-02-26T00:29:06;101366.59;;;25.77;64.20
72370;BME280;60343;-32.030;115.880;2024-02-26T00:31:42;101366.78;;;25.71;64.14
72370;BME280;60343;-32.030;115.880;2024-02-26T00:34:18;101362.03;;;25.88;63.16
72370;BME280;60343;-32.030;115.880;2024-02-26T00:36:53;101362.16;;;26.03;62.46
72370;BME280;60343;-32.030;115.880;2024-02-26T00:39:28;101352.34;;;26.12;62.53
72370;BME280;60343;-32.030;115.880;2024-02-26T00:42:03;101365.25;;;26.43;61.14
72370;BME280;60343;-32.030;115.880;2024-02-26T00:44:45;101357.94;;;27.06;59.52
72370;BME280;60343;-32.030;115.880;2024-02-26T00:47:21;101351.34;;;28.30;56.61
72370;BME280;60343;-32.030;115.880;2024-02-26T00:49:57;101344.72;;;29.36;53.33
72370;BME280;60343;-32.030;115.880;2024-02-26T00:52:32;101337.81;;;30.16;51.44
72370;BME280;60343;-32.030;115.880;2024-02-26T00:55:08;101348.78;;;30.55;49.78
72370;BME280;60343;-32.030;115.880;2024-02-26T00:57:44;101342.56;;;30.92;48.09
72370;BME280;60343;-32.030;115.880;2024-02-26T01:00:25;101332.53;;;31.20;47.73
72370;BME280;60343;-32.030;115.880;2024-02-26T01:03:01;101315.03;;;31.25;47.40
72370;BME280;60343;-32.030;115.880;2024-02-26T01:05:37;101324.63;;;31.32;46.85
72370;BME280;60343;-32.030;115.880;2024-02-26T01:08:12;101314.88;;;31.35;47.10
72370;BME280;60343;-32.030;115.880;2024-02-26T01:10:48;101319.06;;;31.51;46.52
72370;BME280;60343;-32.030;115.880;2024-02-26T01:13:23;101310.28;;;31.68;46.34
72370;BME280;60343;-32.030;115.880;2024-02-26T01:16:05;101325.56;;;31.98;46.01
72370;BME280;60343;-32.030;115.880;2024-02-26T01:18:40;101325.78;;;32.01;44.78
72370;BME280;60343;-32.030;115.880;2024-02-26T01:21:16;101328.97;;;31.76;44.84
72370;BME280;60343;-32.030;115.880;2024-02-26T01:23:51;101328.13;;;31.94;45.10
72370;BME280;60343;-32.030;115.880;2024-02-26T01:26:27;101324.34;;;32.50;44.12
72370;BME280;60343;-32.030;115.880;2024-02-26T01:29:02;101319.53;;;32.55;44.00
72370;BME280;60343;-32.030;115.880;2024-02-26T01:31:43;101323.75;;;32.53;43.74
72370;BME280;60343;-32.030;115.880;2024-02-26T01:34:18;101316.38;;;32.62;43.78
72370;BME280;60343;-32.030;115.880;2024-02-26T01:36:54;101314.88;;;32.83;43.05
72370;BME280;60343;-32.030;115.880;2024-02-26T01:39:29;101313.78;;;33.34;42.60
72370;BME280;60343;-32.030;115.880;2024-02-26T01:42:05;101314.97;;;32.78;42.86
72370;BME280;60343;-32.030;115.880;2024-02-26T01:44:40;101307.13;;;33.07;42.63
72370;BME280;60343;-32.030;115.880;2024-02-26T01:47:21;101312.38;;;33.09;42.50
72370;BME280;60343;-32.030;115.880;2024-02-26T01:49:58;101308.69;;;33.49;41.87
72370;BME280;60343;-32.030;115.880;2024-02-26T01:52:33;101305.53;;;33.78;41.00
72370;BME280;60343;-32.030;115.880;2024-02-26T01:55:09;101309.94;;;33.43;41.43
72370;BME280;60343;-32.030;115.880;2024-02-26T01:57:47;101306.44;;;32.88;42.07
72370;BME280;60343;-32.030;115.880;2024-02-26T02:00:23;101308.25;;;33.06;42.17
72370;BME280;60343;-32.030;115.880;2024-02-26T02:03:05;101303.06;;;33.41;40.88
72370;BME280;60343;-32.030;115.880;2024-02-26T02:05:41;101296.34;;;32.92;41.86
72370;BME280;60343;-32.030;115.880;2024-02-26T02:08:16;101292.59;;;32.15;43.42
72370;BME280;60343;-32.030;115.880;2024-02-26T02:10:52;101298.28;;;31.72;44.20
72370;BME280;60343;-32.030;115.880;2024-02-26T02:13:28;101296.25;;;31.03;46.36
72370;BME280;60343;-32.030;115.880;2024-02-26T02:16:03;101290.66;;;30.84;46.88
72370;BME280;60343;-32.030;115.880;2024-02-26T02:18:44;101278.22;;;31.24;46.89
72370;BME280;60343;-32.030;115.880;2024-02-26T02:21:26;101276.44;;;32.03;45.01
72370;BME280;60343;-32.030;115.880;2024-02-26T02:24:01;101278.47;;;32.44;44.55
72370;BME280;60343;-32.030;115.880;2024-02-26T02:26:36;101271.81;;;32.58;43.53
72370;BME280;60343;-32.030;115.880;2024-02-26T02:29:12;101259.19;;;33.15;42.62
72370;BME280;60343;-32.030;115.880;2024-02-26T02:31:48;101266.13;;;33.04;41.89
72370;BME280;60343;-32.030;115.880;2024-02-26T02:34:24;101270.22;;;33.20;41.69
72370;BME280;60343;-32.030;115.880;2024-02-26T02:37:09;101264.00;;;33.37;41.83
72370;BME280;60343;-32.030;115.880;2024-02-26T02:39:45;101258.38;;;33.51;41.00
72370;BME280;60343;-32.030;115.880;2024-02-26T02:42:22;101265.09;;;33.72;40.40
72370;BME280;60343;-32.030;115.880;2024-02-26T02:44:58;101259.47;;;33.86;40.34
72370;BME280;60343;-32.030;115.880;2024-02-26T02:47:36;101260.56;;;34.07;39.41
72370;BME280;60343;-32.030;115.880;2024-02-26T02:50:12;101250.59;;;34.06;39.70
72370;BME280;60343;-32.030;115.880;2024-02-26T02:52:53;101250.66;;;34.15;40.09
72370;BME280;60343;-32.030;115.880;2024-02-26T02:55:28;101251.09;;;34.08;40.12
72370;BME280;60343;-32.030;115.880;2024-02-26T02:58:04;101251.75;;;34.36;39.69
72370;BME280;60343;-32.030;115.880;2024-02-26T03:00:39;101241.28;;;34.41;39.45
72370;BME280;60343;-32.030;115.880;2024-02-26T03:03:14;101244.44;;;34.49;39.41
72370;BME280;60343;-32.030;115.880;2024-02-26T03:05:52;101235.78;;;34.59;39.05
72370;BME280;60343;-32.030;115.880;2024-02-26T03:08:33;101232.81;;;34.46;38.90
72370;BME280;60343;-32.030;115.880;2024-02-26T03:11:14;101229.84;;;34.43;39.07
72370;BME280;60343;-32.030;115.880;2024-02-26T03:13:49;101224.84;;;34.62;39.09
72370;BME280;60343;-32.030;115.880;2024-02-26T03:16:25;101217.09;;;34.42;39.63
72370;BME280;60343;-32.030;115.880;2024-02-26T03:19:00;101221.44;;;34.65;39.97
72370;BME280;60343;-32.030;115.880;2024-02-26T03:21:35;101224.34;;;34.60;39.06
72370;BME280;60343;-32.030;115.880;2024-02-26T03:24:17;101215.94;;;34.34;39.78
72370;BME280;60343;-32.030;115.880;2024-02-26T03:26:52;101217.16;;;34.59;39.17
72370;BME280;60343;-32.030;115.880;2024-02-26T03:29:27;101205.78;;;34.95;39.83
72370;BME280;60343;-32.030;115.880;2024-02-26T03:32:04;101200.88;;;35.26;38.69
72370;BME280;60343;-32.030;115.880;2024-02-26T03:34:40;101198.41;;;35.08;38.04
72370;BME280;60343;-32.030;115.880;2024-02-26T03:37:15;101202.41;;;34.50;39.30
72370;BME280;60343;-32.030;115.880;2024-02-26T03:39:56;101196.28;;;34.87;39.60
72370;BME280;60343;-32.030;115.880;2024-02-26T03:42:32;101185.81;;;35.10;38.01
72370;BME280;60343;-32.030;115.880;2024-02-26T03:45:08;101191.22;;;35.33;37.79
72370;BME280;60343;-32.030;115.880;2024-02-26T03:47:45;101186.16;;;35.26;37.37
72370;BME280;60343;-32.030;115.880;2024-02-26T03:50:21;101180.56;;;35.43;38.13
72370;BME280;60343;-32.030;115.880;2024-02-26T03:52:57;101178.22;;;35.80;37.67
72370;BME280;60343;-32.030;115.880;2024-02-26T03:55:38;101171.13;;;36.29;36.56
72370;BME280;60343;-32.030;115.880;2024-02-26T03:58:14;101177.34;;;36.64;36.14
72370;BME280;60343;-32.030;115.880;2024-02-26T04:00:50;101177.38;;;36.55;35.74
72370;BME280;60343;-32.030;115.880;2024-02-26T04:03:25;101175.13;;;36.19;37.10
72370;BME280;60343;-32.030;115.880;2024-02-26T04:06:00;101174.78;;;36.12;37.47
72370;BME280;60343;-32.030;115.880;2024-02-26T04:08:35;101166.59;;;35.52;37.09
72370;BME280;60343;-32.030;115.880;2024-02-26T04:11:17;101162.75;;;35.18;37.88
72370;BME280;60343;-32.030;115.880;2024-02-26T04:13:53;101162.44;;;35.84;37.11
72370;BME280;60343;-32.030;115.880;2024-02-26T04:16:28;101157.63;;;36.01;35.68
72370;BME280;60343;-32.030;115.880;2024-02-26T04:19:04;101152.72;;;35.98;36.53
72370;BME280;60343;-32.030;115.880;2024-02-26T04:21:40;101139.41;;;36.63;36.20
72370;BME280;60343;-32.030;115.880;2024-02-26T04:24:16;101147.66;;;37.01;34.80
72370;BME280;60343;-32.030;115.880;2024-02-26T04:26:57;101149.53;;;37.29;34.06
72370;BME280;60343;-32.030;115.880;2024-02-26T04:29:32;101141.25;;;37.54;33.92
72370;BME280;60343;-32.030;115.880;2024-02-26T04:32:08;101132.09;;;37.65;33.62
72370;BME280;60343;-32.030;115.880;2024-02-26T04:34:43;101131.03;;;37.70;33.88
72370;BME280;60343;-32.030;115.880;2024-02-26T04:37:18;101130.09;;;37.78;33.31
72370;BME280;60343;-32.030;115.880;2024-02-26T04:40:00;101125.84;;;37.48;33.54
72370;BME280;60343;-32.030;115.880;2024-02-26T04:42:41;101120.84;;;37.41;33.93
72370;BME280;60343;-32.030;115.880;2024-02-26T04:45:17;101117.44;;;37.35;33.40
72370;BME280;60343;-32.030;115.880;2024-02-26T04:47:52;101108.41;;;36.64;34.06
72370;BME280;60343;-32.030;115.880;2024-02-26T04:50:27;101114.81;;;36.06;36.08
72370;BME280;60343;-32.030;115.880;2024-02-26T04:53:03;101111.81;;;36.20;36.75
72370;BME280;60343;-32.030;115.880;2024-02-26T04:55:38;101107.91;;;36.41;35.31
72370;BME280;60343;-32.030;115.880;2024-02-26T04:58:19;101104.19;;;36.29;35.16
72370;BME280;60343;-32.030;115.880;2024-02-26T05:00:55;101109.44;;;36.30;35.61
72370;BME280;60343;-32.030;115.880;2024-02-26T05:03:31;101098.31;;;36.51;35.20
72370;BME280;60343;-32.030;115.880;2024-02-26T05:06:07;101097.50;;;36.71;35.24
72370;BME280;60343;-32.030;115.880;2024-02-26T05:08:42;101089.88;;;36.80;36.88
72370;BME280;60343;-32.030;115.880;2024-02-26T05:11:17;101094.75;;;36.83;36.26
72370;BME280;60343;-32.030;115.880;2024-02-26T05:13:58;101085.50;;;36.91;35.56
72370;BME280;60343;-32.030;115.880;2024-02-26T05:16:34;101079.66;;;37.17;36.09
72370;BME280;60343;-32.030;115.880;2024-02-26T05:19:09;101083.53;;;37.25;35.67
72370;BME280;60343;-32.030;115.880;2024-02-26T05:21:44;101080.66;;;37.33;36.57
72370;BME280;60343;-32.030;115.880;2024-02-26T05:24:20;101067.63;;;37.50;35.52
72370;BME280;60343;-32.030;115.880;2024-02-26T05:26:55;101071.81;;;37.31;35.36
72370;BME280;60343;-32.030;115.880;2024-02-26T05:29:36;101056.88;;;37.27;35.53
72370;BME280;60343;-32.030;115.880;2024-02-26T05:32:12;101057.03;;;37.31;34.94
72370;BME280;60343;-32.030;115.880;2024-02-26T05:34:47;101066.19;;;37.19;35.63
72370;BME280;60343;-32.030;115.880;2024-02-26T05:37:22;101064.84;;;36.72;35.70
72370;BME280;60343;-32.030;115.880;2024-02-26T05:39:59;101067.34;;;36.44;35.95
72370;BME280;60343;-32.030;115.880;2024-02-26T05:42:34;101063.25;;;36.41;35.81
72370;BME280;60343;-32.030;115.880;2024-02-26T05:45:18;101054.53;;;36.22;36.54
72370;BME280;60343;-32.030;115.880;2024-02-26T05:47:53;101059.88;;;36.06;36.60
72370;BME280;60343;-32.030;115.880;2024-02-26T05:50:28;101060.91;;;35.93;36.89
72370;BME280;60343;-32.030;115.880;2024-02-26T05:53:04;101061.44;;;35.87;36.83
72370;BME280;60343;-32.030;115.880;2024-02-26T05:55:39;101057.06;;;35.77;36.78
72370;BME280;60343;-32.030;115.880;2024-02-26T05:58:14;101055.47;;;35.67;37.40
72370;BME280;60343;-32.030;115.880;2024-02-26T06:00:56;101045.28;;;35.80;37.23
72370;BME280;60343;-32.030;115.880;2024-02-26T06:03:31;101051.94;;;36.17;36.49
72370;BME280;60343;-32.030;115.880;2024-02-26T06:06:07;101045.69;;;35.91;36.52
72370;BME280;60343;-32.030;115.880;2024-02-26T06:08:43;101042.28;;;35.85;36.78
72370;BME280;60343;-32.030;115.880;2024-02-26T06:11:13;101041.69;;;35.62;37.07
72370;BME280;60343;-32.030;115.880;2024-02-26T06:13:50;101032.91;;;35.52;37.27
72370;BME280;60343;-32.030;115.880;2024-02-26T06:16:32;101029.94;;;35.95;37.19
72370;BME280;60343;-32.030;115.880;2024-02-26T06:19:07;101038.84;;;36.09;36.50
72370;BME280;60343;-32.030;115.880;2024-02-26T06:21:43;101035.44;;;36.03;36.11
72370;BME280;60343;-32.030;115.880;2024-02-26T06:24:18;101033.00;;;36.31;36.55
72370;BME280;60343;-32.030;115.880;2024-02-26T06:26:54;101034.16;;;36.01;36.63
72370;BME280;60343;-32.030;115.880;2024-02-26T06:29:30;101026.59;;;36.31;36.67
72370;BME280;60343;-32.030;115.880;2024-02-26T06:32:11;101041.13;;;35.86;36.34
72370;BME280;60343;-32.030;115.880;2024-02-26T06:34:46;101043.28;;;35.43;37.02
72370;BME280;60343;-32.030;115.880;2024-02-26T06:37:22;101026.22;;;35.44;36.69
72370;BME280;60343;-32.030;115.880;2024-02-26T06:39:57;101034.50;;;35.15;37.86
72370;BME280;60343;-32.030;115.880;2024-02-26T06:42:34;101022.78;;;35.47;37.32
72370;BME280;60343;-32.030;115.880;2024-02-26T06:45:11;101013.84;;;35.71;37.46
72370;BME280;60343;-32.030;115.880;2024-02-26T06:47:53;101017.63;;;35.96;36.99
72370;BME280;60343;-32.030;115.880;2024-02-26T06:50:28;101006.00;;;35.94;36.41
72370;BME280;60343;-32.030;115.880;2024-02-26T06:53:04;101007.72;;;35.78;36.38
72370;BME280;60343;-32.030;115.880;2024-02-26T06:55:39;101011.91;;;35.25;37.19
72370;BME280;60343;-32.030;115.880;2024-02-26T06:58:14;101005.69;;;35.11;37.88
72370;BME280;60343;-32.030;115.880;2024-02-26T07:00:49;101004.00;;;35.27;37.43
72370;BME280;60343;-32.030;115.880;2024-02-26T07:03:31;100990.84;;;35.45;37.15
72370;BME280;60343;-32.030;115.880;2024-02-26T07:06:06;100990.97;;;35.19;37.50
72370;BME280;60343;-32.030;115.880;2024-02-26T07:08:41;100994.44;;;35.45;37.52
72370;BME280;60343;-32.030;115.880;2024-02-26T07:11:16;100999.66;;;35.55;36.84
72370;BME280;60343;-32.030;115.880;2024-02-26T07:13:52;101000.91;;;35.11;37.40
72370;BME280;60343;-32.030;115.880;2024-02-26T07:16:28;100991.50;;;34.86;37.65
72370;BME280;60343;-32.030;115.880;2024-02-26T07:19:09;100992.03;;;34.54;38.51
72370;BME280;60343;-32.030;115.880;2024-02-26T07:21:45;100985.00;;;34.31;39.03
72370;BME280;60343;-32.030;115.880;2024-02-26T07:24:20;100972.22;;;34.13;39.46
72370;BME280;60343;-32.030;115.880;2024-02-26T07:26:55;100987.00;;;33.65;40.21
72370;BME280;60343;-32.030;115.880;2024-02-26T07:29:32;100981.38;;;32.86;41.42
72370;BME280;60343;-32.030;115.880;2024-02-26T07:32:07;100981.59;;;32.31;42.69
72370;BME280;60343;-32.030;115.880;2024-02-26T07:34:49;100984.91;;;31.84;43.83
72370;BME280;60343;-32.030;115.880;2024-02-26T07:37:24;100999.16;;;31.64;44.24
72370;BME280;60343;-32.030;115.880;2024-02-26T07:40:00;100989.69;;;31.51;44.58
72370;BME280;60343;-32.030;115.880;2024-02-26T07:42:36;100984.66;;;31.39;45.10
72370;BME280;60343;-32.030;115.880;2024-02-26T07:45:11;100986.69;;;31.20;44.91
72370;BME280;60343;-32.030;115.880;2024-02-26T07:47:47;100997.88;;;31.15;45.93
72370;BME280;60343;-32.030;115.880;2024-02-26T07:50:29;101000.97;;;30.95;45.83
72370;BME280;60343;-32.030;115.880;2024-02-26T07:53:04;100998.19;;;30.95;46.32
72370;BME280;60343;-32.030;115.880;2024-02-26T07:55:39;100994.69;;;30.89;46.47
72370;BME280;60343;-32.030;115.880;2024-02-26T07:58:15;100987.66;;;30.83;46.29
72370;BME280;60343;-32.030;115.880;2024-02-26T08:00:51;100996.56;;;30.61;47.17
72370;BME280;60343;-32.030;115.880;2024-02-26T08:03:28;100999.00;;;30.44;47.29
72370;BME280;60343;-32.030;115.880;2024-02-26T08:06:09;100986.72;;;30.37;47.45
72370;BME280;60343;-32.030;115.880;2024-02-26T08:08:45;101002.56;;;30.50;47.54
72370;BME280;60343;-32.030;115.880;2024-02-26T08:11:21;100996.56;;;30.61;46.65
72370;BME280;60343;-32.030;115.880;2024-02-26T08:13:56;101002.56;;;30.50;47.24
72370;BME280;60343;-32.030;115.880;2024-02-26T08:16:32;101000.63;;;30.50;47.34
72370;BME280;60343;-32.030;115.880;2024-02-26T08:19:07;100993.19;;;30.46;47.19
72370;BME280;60343;-32.030;115.880;2024-02-26T08:21:49;100999.78;;;30.50;47.51
72370;BME280;60343;-32.030;115.880;2024-02-26T08:24:25;100988.53;;;30.46;47.12
72370;BME280;60343;-32.030;115.880;2024-02-26T08:27:01;101004.00;;;30.47;47.94
72370;BME280;60343;-32.030;115.880;2024-02-26T08:29:37;101001.16;;;30.52;47.07
72370;BME280;60343;-32.030;115.880;2024-02-26T08:32:12;101008.00;;;30.36;47.93
72370;BME280;60343;-32.030;115.880;2024-02-26T08:34:47;101011.03;;;30.35;47.97
72370;BME280;60343;-32.030;115.880;2024-02-26T08:37:29;101022.47;;;30.28;48.63
72370;BME280;60343;-32.030;115.880;2024-02-26T08:40:05;101023.53;;;30.32;48.79
72370;BME280;60343;-32.030;115.880;2024-02-26T08:42:40;101018.91;;;30.27;48.66
72370;BME280;60343;-32.030;115.880;2024-02-26T08:45:16;101024.19;;;30.24;48.44
72370;BME280;60343;-32.030;115.880;2024-02-26T08:47:52;101017.69;;;30.15;48.99
72370;BME280;60343;-32.030;115.880;2024-02-26T08:50:27;101024.03;;;30.15;49.10
72370;BME280;60343;-32.030;115.880;2024-02-26T08:53:08;101018.91;;;29.85;49.66
72370;BME280;60343;-32.030;115.880;2024-02-26T08:55:43;101028.34;;;29.79;50.04
72370;BME280;60343;-32.030;115.880;2024-02-26T08:58:19;101029.84;;;29.71;50.04
72370;BME280;60343;-32.030;115.880;2024-02-26T09:00:54;101031.53;;;29.43;49.70
72370;BME280;60343;-32.030;115.880;2024-02-26T09:03:29;101020.09;;;29.26;50.61
72370;BME280;60343;-32.030;115.880;2024-02-26T09:06:05;101022.59;;;29.23;51.27
72370;BME280;60343;-32.030;115.880;2024-02-26T09:08:46;101022.97;;;29.16;51.26
72370;BME280;60343;-32.030;115.880;2024-02-26T09:11:21;101025.50;;;29.08;51.49
72370;BME280;60343;-32.030;115.880;2024-02-26T09:13:56;101022.28;;;29.00;51.31
72370;BME280;60343;-32.030;115.880;2024-02-26T09:16:32;101036.13;;;28.95;51.45
72370;BME280;60343;-32.030;115.880;2024-02-26T09:19:08;101030.06;;;28.93;51.89
72370;BME280;60343;-32.030;115.880;2024-02-26T09:21:44;101033.59;;;28.99;52.21
72370;BME280;60343;-32.030;115.880;2024-02-26T09:24:25;101039.59;;;29.06;51.79
72370;BME280;60343;-32.030;115.880;2024-02-26T09:27:01;101040.91;;;29.14;51.52
72370;BME280;60343;-32.030;115.880;2024-02-26T09:29:37;101045.16;;;29.01;51.59
72370;BME280;60343;-32.030;115.880;2024-02-26T09:32:12;101053.22;;;28.92;52.04
72370;BME280;60343;-32.030;115.880;2024-02-26T09:34:48;101060.25;;;28.70;52.80
72370;BME280;60343;-32.030;115.880;2024-02-26T09:37:23;101070.56;;;28.54;53.12
72370;BME280;60343;-32.030;115.880;2024-02-26T09:40:05;101062.41;;;28.39;53.98
72370;BME280;60343;-32.030;115.880;2024-02-26T09:42:45;101072.56;;;28.43;54.19
72370;BME280;60343;-32.030;115.880;2024-02-26T09:45:22;101071.16;;;28.51;53.74
72370;BME280;60343;-32.030;115.880;2024-02-26T09:47:59;101068.06;;;28.57;53.59
72370;BME280;60343;-32.030;115.880;2024-02-26T09:50:38;101081.00;;;28.57;53.51
72370;BME280;60343;-32.030;115.880;2024-02-26T09:53:14;101078.34;;;28.47;53.60
72370;BME280;60343;-32.030;115.880;2024-02-26T09:55:55;101086.31;;;28.43;53.64
72370;BME280;60343;-32.030;115.880;2024-02-26T09:58:31;101086.69;;;28.32;54.12
72370;BME280;60343;-32.030;115.880;2024-02-26T10:01:11;101088.69;;;28.16;54.46
72370;BME280;60343;-32.030;115.880;2024-02-26T10:03:53;101090.91;;;27.99;55.43
72370;BME280;60343;-32.030;115.880;2024-02-26T10:06:30;101102.28;;;27.72;56.47
72370;BME280;60343;-32.030;115.880;2024-02-26T10:09:07;101100.38;;;27.57;57.28
72370;BME280;60343;-32.030;115.880;2024-02-26T10:11:50;101104.78;;;27.48;57.57
72370;BME280;60343;-32.030;115.880;2024-02-26T10:14:27;101111.69;;;27.36;58.71
72370;BME280;60343;-32.030;115.880;2024-02-26T10:17:02;101112.78;;;27.19;59.49
72370;BME280;60343;-32.030;115.880;2024-02-26T10:19:39;101100.97;;;27.09;59.45
72370;BME280;60343;-32.030;115.880;2024-02-26T10:22:15;101116.88;;;26.97;60.31
72370;BME280;60343;-32.030;115.880;2024-02-26T10:24:50;101118.22;;;26.84;60.57
72370;BME280;60343;-32.030;115.880;2024-02-26T10:27:31;101122.06;;;26.73;60.99
72370;BME280;60343;-32.030;115.880;2024-02-26T10:30:17;101120.13;;;26.68;61.03
72370;BME280;60343;-32.030;115.880;2024-02-26T10:32:54;101117.63;;;26.62;61.24
72370;BME280;60343;-32.030;115.880;2024-02-26T10:35:29;101134.09;;;26.57;61.71
72370;BME280;60343;-32.030;115.880;2024-02-26T10:38:09;101123.91;;;26.47;62.49
72370;BME280;60343;-32.030;115.880;2024-02-26T10:40:49;101139.78;;;26.30;62.72
72370;BME280;60343;-32.030;115.880;2024-02-26T10:43:30;101145.78;;;26.22;63.43
72370;BME280;60343;-32.030;115.880;2024-02-26T10:46:06;101147.94;;;26.15;63.68
72370;BME280;60343;-32.030;115.880;2024-02-26T10:48:41;101156.91;;;26.00;64.55
72370;BME280;60343;-32.030;115.880;2024-02-26T10:51:27;101163.94;;;25.86;65.38
72370;BME280;60343;-32.030;115.880;2024-02-26T10:54:04;101169.66;;;25.79;65.46
72370;BME280;60343;-32.030;115.880;2024-02-26T10:56:42;101182.81;;;25.77;65.97
72370;BME280;60343;-32.030;115.880;2024-02-26T10:59:24;101184.69;;;25.72;66.22
72370;BME280;60343;-32.030;115.880;2024-02-26T11:02:00;101196.16;;;25.63;66.58
72370;BME280;60343;-32.030;115.880;2024-02-26T11:04:36;101196.00;;;25.48;66.83
72370;BME280;60343;-32.030;115.880;2024-02-26T11:07:12;101206.41;;;25.46;67.70
72370;BME280;60343;-32.030;115.880;2024-02-26T11:09:48;101200.81;;;25.36;67.71
72370;BME280;60343;-32.030;115.880;2024-02-26T11:12:25;101197.91;;;25.16;68.59
72370;BME280;60343;-32.030;115.880;2024-02-26T11:15:10;101203.59;;;25.09;68.69
72370;BME280;60343;-32.030;115.880;2024-02-26T11:17:45;101210.88;;;24.99;69.29
72370;BME280;60343;-32.030;115.880;2024-02-26T11:20:21;101221.66;;;24.84;70.33
72370;BME280;60343;-32.030;115.880;2024-02-26T11:22:58;101222.03;;;24.70;70.43
72370;BME280;60343;-32.030;115.880;2024-02-26T11:25:34;101221.72;;;24.67;70.88
72370;BME280;60343;-32.030;115.880;2024-02-26T11:28:13;101221.91;;;24.60;71.29
72370;BME280;60343;-32.030;115.880;2024-02-26T11:30:55;101223.44;;;24.51;71.54
72370;BME280;60343;-32.030;115.880;2024-02-26T11:33:33;101235.44;;;24.50;72.20
72370;BME280;60343;-32.030;115.880;2024-02-26T11:36:11;101241.25;;;24.32;72.52
72370;BME280;60343;-32.030;115.880;2024-02-26T11:38:47;101241.44;;;24.09;74.01
72370;BME280;60343;-32.030;115.880;2024-02-26T11:41:23;101252.63;;;24.07;74.25
72370;BME280;60343;-32.030;115.880;2024-02-26T11:44:00;101260.91;;;23.95;74.72
72370;BME280;60343;-32.030;115.880;2024-02-26T11:46:42;101261.66;;;23.91;74.69
72370;BME280;60343;-32.030;115.880;2024-02-26T11:49:31;101271.38;;;23.99;74.58
72370;BME280;60343;-32.030;115.880;2024-02-26T11:52:08;101283.47;;;23.86;74.88
72370;BME280;60343;-32.030;115.880;2024-02-26T11:54:48;101283.53;;;23.91;74.98
72370;BME280;60343;-32.030;115.880;2024-02-26T11:57:24;101284.28;;;23.86;75.03
72370;BME280;60343;-32.030;115.880;2024-02-26T12:00:13;101289.00;;;23.74;75.22
72370;BME280;60343;-32.030;115.880;2024-02-26T12:02:57;101289.25;;;23.73;75.57
72370;BME280;60343;-32.030;115.880;2024-02-26T12:05:36;101290.75;;;23.64;75.56
72370;BME280;60343;-32.030;115.880;2024-02-26T12:08:11;101291.56;;;23.64;75.69
72370;BME280;60343;-32.030;115.880;2024-02-26T12:10:49;101291.56;;;23.64;75.35
72370;BME280;60343;-32.030;115.880;2024-02-26T12:13:31;101290.91;;;23.57;75.11
72370;BME280;60343;-32.030;115.880;2024-02-26T12:16:07;101294.94;;;23.55;75.18
72370;BME280;60343;-32.030;115.880;2024-02-26T12:18:48;101293.31;;;23.42;75.41
72370;BME280;60343;-32.030;115.880;2024-02-26T12:21:31;101293.31;;;23.42;75.51
72370;BME280;60343;-32.030;115.880;2024-02-26T12:24:14;101307.97;;;23.36;75.36
72370;BME280;60343;-32.030;115.880;2024-02-26T12:26:51;101296.44;;;23.34;75.52
72370;BME280;60343;-32.030;115.880;2024-02-26T12:29:26;101298.94;;;23.35;75.01
72370;BME280;60343;-32.030;115.880;2024-02-26T12:32:02;101308.69;;;23.31;75.45
72370;BME280;60343;-32.030;115.880;2024-02-26T12:34:45;101316.19;;;23.24;75.41
72370;BME280;60343;-32.030;115.880;2024-02-26T12:37:20;101322.41;;;23.20;75.58
72370;BME280;60343;-32.030;115.880;2024-02-26T12:39:55;101326.69;;;23.16;75.94
72370;BME280;60343;-32.030;115.880;2024-02-26T12:42:32;101327.28;;;23.18;74.87
72370;BME280;60343;-32.030;115.880;2024-02-26T12:45:09;101337.63;;;23.16;73.83
72370;BME280;60343;-32.030;115.880;2024-02-26T12:47:45;101335.72;;;23.16;73.27
72370;BME280;60343;-32.030;115.880;2024-02-26T12:50:26;101339.41;;;23.10;73.79
72370;BME280;60343;-32.030;115.880;2024-02-26T12:53:02;101338.13;;;23.01;74.26
72370;BME280;60343;-32.030;115.880;2024-02-26T12:55:37;101349.91;;;23.01;74.22
72370;BME280;60343;-32.030;115.880;2024-02-26T12:58:13;101347.56;;;22.93;74.63
72370;BME280;60343;-32.030;115.880;2024-02-26T13:00:52;101352.75;;;22.95;75.04
72370;BME280;60343;-32.030;115.880;2024-02-26T13:03:28;101358.81;;;22.85;75.06
72370;BME280;60343;-32.030;115.880;2024-02-26T13:06:10;101363.56;;;22.90;75.29
72370;BME280;60343;-32.030;115.880;2024-02-26T13:08:46;101370.69;;;22.79;75.40